Time;durP1;ratioP1;P1;durP2;ratioP2;P2;SDS_P1;SDS_P2;PMS_P1;PMS_P2;Temp;Humidity;BMP_temperature;BMP_pressure;BME280_temperature;BME280_humidity;BME280_pressure;Samples;Min_cycle;Max_cycle;Signal;HPM_P1;HPM_P2
2021/07/29 00:00:51;;;;;;;11.30;2.33;;;14.10;99.90;;;;;;5032788;28;20029;-62
2021/07/29 00:03:17;;;;;;;10.93;2.88;;;14.00;99.90;;;;;;5031660;28;20037;-62
2021/07/29 00:05:43;;;;;;;9.52;4.30;;;14.10;99.90;;;;;;5032221;28;20041;-59
2021/07/29 00:08:08;;;;;;;16.80;7.05;;;14.00;99.90;;;;;;5032159;28;20029;-60
2021/07/29 00:10:34;;;;;;;23.30;9.27;;;14.00;99.90;;;;;;5032900;28;20064;-59
2021/07/29 00:13:00;;;;;;;24.85;9.43;;;14.00;99.90;;;;;;5032373;28;20046;-60
2021/07/29 00:15:25;;;;;;;24.75;10.05;;;14.00;99.90;;;;;;5031632;28;20033;-59
2021/07/29 00:20:27;;;;;;;18.65;9.25;;;13.90;99.90;;;;;;5033747;28;20038;-59
2021/07/29 00:23:01;;;;;;;23.42;10.48;;;13.90;99.90;;;;;;5035951;28;20033;-60
2021/07/29 00:25:28;;;;;;;19.90;9.38;;;13.80;99.90;;;;;;5031699;28;20038;-59
2021/07/29 00:27:55;;;;;;;15.70;7.70;;;13.80;99.90;;;;;;5031961;28;20095;-61
2021/07/29 00:30:23;;;;;;;15.27;6.90;;;13.80;99.90;;;;;;5031875;28;20025;-60
2021/07/29 00:32:55;;;;;;;12.68;6.03;;;13.80;99.90;;;;;;5030797;28;20025;-59
2021/07/29 00:35:21;;;;;;;15.88;5.78;;;13.70;99.90;;;;;;5034246;28;20419;-59
2021/07/29 00:37:50;;;;;;;16.20;6.30;;;13.70;99.90;;;;;;5037862;28;20033;-59
2021/07/29 00:40:20;;;;;;;16.23;5.35;;;13.80;99.90;;;;;;5032687;28;20038;-61
2021/07/29 00:42:46;;;;;;;17.52;4.13;;;13.80;99.90;;;;;;5027529;28;20092;-62
2021/07/29 00:45:12;;;;;;;11.73;2.70;;;13.80;99.90;;;;;;5031777;28;20026;-61
2021/07/29 00:47:40;;;;;;;11.07;2.17;;;13.70;99.90;;;;;;5030438;28;20030;-60
2021/07/29 00:50:10;;;;;;;8.13;1.80;;;13.70;99.90;;;;;;5038672;28;20044;-60
2021/07/29 00:52:35;;;;;;;7.55;1.80;;;13.80;99.90;;;;;;5032223;28;20482;-60
2021/07/29 00:55:02;;;;;;;6.28;1.70;;;13.70;99.90;;;;;;5034075;28;20029;-61
2021/07/29 00:57:27;;;;;;;9.48;1.92;;;13.60;99.90;;;;;;5031399;28;20136;-59
2021/07/29 00:59:53;;;;;;;9.30;1.83;;;13.60;99.90;;;;;;5035374;28;20064;-60
2021/07/29 01:02:19;;;;;;;7.80;1.83;;;13.60;99.90;;;;;;5030743;28;20033;-61
2021/07/29 01:04:46;;;;;;;6.40;1.65;;;13.60;99.90;;;;;;5032506;28;20057;-61
2021/07/29 01:07:11;;;;;;;12.07;2.05;;;13.60;99.90;;;;;;5037518;28;20029;-60
2021/07/29 01:09:38;;;;;;;7.47;1.70;;;13.50;99.90;;;;;;5038498;28;20404;-59
2021/07/29 01:12:04;;;;;;;9.60;1.85;;;13.50;99.90;;;;;;5030479;28;20128;-61
2021/07/29 01:14:30;;;;;;;7.47;2.22;;;13.50;99.90;;;;;;5031658;28;20434;-59
2021/07/29 01:16:56;;;;;;;7.68;2.03;;;13.40;99.90;;;;;;5031621;28;20076;-61
2021/07/29 01:19:25;;;;;;;8.95;1.75;;;13.40;99.90;;;;;;5030842;28;20033;-60
2021/07/29 01:21:52;;;;;;;7.43;2.05;;;13.40;99.90;;;;;;5030277;28;20029;-62
2021/07/29 01:24:18;;;;;;;9.52;1.90;;;13.30;99.90;;;;;;5030748;28;20029;-59
2021/07/29 01:26:43;;;;;;;11.48;1.70;;;13.30;99.90;;;;;;5034579;28;20061;-61
2021/07/29 01:29:09;;;;;;;14.90;2.50;;;13.30;99.90;;;;;;5031367;28;20030;-60
2021/07/29 01:31:36;;;;;;;11.25;1.70;;;13.30;99.90;;;;;;5029274;28;20037;-60
2021/07/29 01:34:02;;;;;;;9.63;1.77;;;13.30;99.90;;;;;;5033003;28;20033;-62
2021/07/29 01:36:28;;;;;;;6.95;1.98;;;13.20;99.90;;;;;;5033181;28;20041;-61
2021/07/29 01:38:54;;;;;;;7.90;1.98;;;13.20;99.90;;;;;;5029610;28;20037;-60
2021/07/29 01:41:19;;;;;;;7.88;2.08;;;13.20;99.90;;;;;;5035504;28;20021;-61
2021/07/29 01:43:45;;;;;;;8.98;2.42;;;13.20;99.90;;;;;;5030841;28;20849;-61
2021/07/29 01:46:11;;;;;;;12.27;2.10;;;13.30;99.90;;;;;;5029464;28;20034;-60
2021/07/29 01:48:36;;;;;;;10.38;2.10;;;13.30;99.90;;;;;;5030727;28;20096;-60
2021/07/29 01:51:02;;;;;;;15.27;2.95;;;13.20;99.90;;;;;;5032828;28;20034;-59
2021/07/29 01:53:28;;;;;;;5.93;2.22;;;13.20;99.90;;;;;;5030311;28;20368;-60
2021/07/29 01:55:53;;;;;;;11.02;2.10;;;13.20;99.90;;;;;;5037684;28;20112;-61
2021/07/29 01:58:19;;;;;;;6.07;1.88;;;13.20;99.90;;;;;;5039027;28;20032;-58
2021/07/29 02:00:49;;;;;;;7.65;2.30;;;13.20;99.90;;;;;;5033584;28;20108;-60
2021/07/29 02:03:15;;;;;;;7.43;2.00;;;13.20;99.90;;;;;;5029846;28;20037;-59
2021/07/29 02:05:41;;;;;;;6.63;1.95;;;13.30;99.90;;;;;;5033841;28;20025;-60
2021/07/29 02:08:07;;;;;;;5.85;2.03;;;13.30;99.90;;;;;;5030333;28;20345;-62
2021/07/29 02:10:33;;;;;;;7.60;2.03;;;13.30;99.90;;;;;;5018595;28;20045;-60
2021/07/29 02:12:59;;;;;;;11.15;2.30;;;13.30;99.90;;;;;;5035005;28;20032;-61
2021/07/29 02:15:26;;;;;;;11.02;2.70;;;13.30;99.90;;;;;;5031823;28;20083;-61
2021/07/29 02:17:56;;;;;;;7.57;2.33;;;13.30;99.90;;;;;;5028852;28;20043;-62
2021/07/29 02:20:21;;;;;;;9.10;2.25;;;13.20;99.90;;;;;;5026768;28;20038;-61
2021/07/29 02:22:47;;;;;;;8.13;2.42;;;13.20;99.90;;;;;;5029882;28;20044;-59
2021/07/29 02:25:13;;;;;;;9.63;2.65;;;13.20;99.90;;;;;;5030208;28;20033;-60
2021/07/29 02:27:38;;;;;;;8.23;2.58;;;13.20;99.90;;;;;;5030982;28;20488;-60
2021/07/29 02:30:05;;;;;;;23.00;3.17;;;13.20;99.90;;;;;;5036485;28;20036;-59
2021/07/29 02:32:30;;;;;;;14.40;2.53;;;13.20;99.90;;;;;;5028318;28;20044;-62
2021/07/29 02:34:56;;;;;;;13.63;2.70;;;13.20;99.90;;;;;;5023903;28;20053;-60
2021/07/29 02:37:23;;;;;;;10.98;2.13;;;13.20;99.90;;;;;;5021512;28;20040;-59
2021/07/29 02:39:49;;;;;;;11.98;2.47;;;13.20;99.90;;;;;;5021889;28;20025;-59
2021/07/29 02:42:15;;;;;;;9.52;2.67;;;13.20;99.90;;;;;;5029383;28;20052;-59
2021/07/29 02:44:41;;;;;;;12.00;2.80;;;13.10;99.90;;;;;;5030834;28;20025;-62
2021/07/29 02:47:07;;;;;;;6.93;2.38;;;13.00;99.90;;;;;;5030628;28;20040;-61
2021/07/29 02:49:33;;;;;;;11.02;2.45;;;13.10;99.90;;;;;;5043398;28;20052;-61
2021/07/29 02:51:58;;;;;;;9.05;2.47;;;13.10;99.90;;;;;;5035542;28;20468;-61
2021/07/29 02:54:25;;;;;;;12.35;2.53;;;13.20;99.90;;;;;;5046696;28;20037;-62
2021/07/29 02:56:52;;;;;;;10.27;2.50;;;13.10;99.90;;;;;;5033320;28;20029;-60
2021/07/29 02:59:17;;;;;;;7.20;2.42;;;13.10;99.90;;;;;;5041662;28;20035;-58
2021/07/29 03:01:43;;;;;;;11.80;2.65;;;13.10;99.90;;;;;;5037063;28;20387;-61
2021/07/29 03:04:09;;;;;;;11.40;2.67;;;13.10;99.90;;;;;;5032898;28;20033;-62
2021/07/29 03:06:34;;;;;;;9.95;2.97;;;13.10;99.90;;;;;;5037673;28;20025;-62
2021/07/29 03:09:00;;;;;;;11.60;2.88;;;13.00;99.90;;;;;;5031399;28;20037;-61
2021/07/29 03:11:27;;;;;;;17.90;3.20;;;12.90;99.90;;;;;;5033675;28;20042;-61
2021/07/29 03:13:53;;;;;;;9.75;2.42;;;12.90;99.90;;;;;;5031857;28;20036;-60
2021/07/29 03:16:19;;;;;;;13.43;2.75;;;12.80;99.90;;;;;;5039084;28;20033;-58
2021/07/29 03:18:44;;;;;;;10.63;2.30;;;12.90;99.90;;;;;;5031283;28;20431;-59
2021/07/29 03:21:10;;;;;;;8.93;2.70;;;12.90;99.90;;;;;;5034578;28;20061;-59
2021/07/29 03:23:36;;;;;;;9.65;2.42;;;12.90;99.90;;;;;;5035528;28;20048;-60
2021/07/29 03:26:03;;;;;;;8.90;2.22;;;12.90;99.90;;;;;;5033994;28;20029;-61
2021/07/29 03:28:28;;;;;;;12.63;3.28;;;12.90;99.90;;;;;;5044292;28;20584;-60
2021/07/29 03:30:54;;;;;;;18.70;3.10;;;12.90;99.90;;;;;;5037305;28;20030;-59
2021/07/29 03:33:20;;;;;;;13.55;2.70;;;12.90;99.90;;;;;;5034520;28;20383;-61
2021/07/29 03:35:47;;;;;;;14.15;3.17;;;12.90;99.90;;;;;;5033605;28;20072;-59
2021/07/29 03:38:12;;;;;;;16.05;3.13;;;12.90;99.90;;;;;;5036806;28;20041;-62
2021/07/29 03:40:39;;;;;;;15.70;3.28;;;12.80;99.90;;;;;;5033796;28;20087;-59
2021/07/29 03:43:07;;;;;;;13.00;3.72;;;12.80;99.90;;;;;;5030448;28;20040;-61
2021/07/29 03:45:36;;;;;;;12.30;3.00;;;12.80;99.90;;;;;;5032639;28;20487;-61
2021/07/29 03:48:03;;;;;;;14.40;3.17;;;12.80;99.90;;;;;;5030029;28;20036;-60
2021/07/29 03:50:29;;;;;;;13.85;2.75;;;12.80;99.90;;;;;;5033389;28;20042;-60
2021/07/29 03:52:55;;;;;;;12.55;2.88;;;12.70;99.90;;;;;;5031855;28;20069;-62
2021/07/29 03:55:21;;;;;;;13.90;3.03;;;12.70;99.90;;;;;;5032977;28;20065;-60
2021/07/29 03:57:47;;;;;;;9.73;2.90;;;12.70;99.90;;;;;;5031304;28;20030;-59
2021/07/29 04:00:14;;;;;;;21.48;3.90;;;12.70;99.90;;;;;;5041194;28;20026;-60
2021/07/29 04:02:40;;;;;;;13.48;3.30;;;12.80;99.90;;;;;;5031240;28;20021;-61
2021/07/29 04:05:07;;;;;;;9.73;2.75;;;12.70;99.90;;;;;;5033852;28;20029;-60
2021/07/29 04:07:33;;;;;;;16.90;3.30;;;12.70;99.90;;;;;;5034261;28;20078;-60
2021/07/29 04:09:59;;;;;;;14.60;3.97;;;12.80;99.90;;;;;;5035172;28;20037;-58
2021/07/29 04:12:25;;;;;;;16.75;3.60;;;12.80;99.90;;;;;;5032482;28;20026;-60
2021/07/29 04:14:50;;;;;;;15.25;3.60;;;12.80;99.90;;;;;;5030161;28;20041;-60
2021/07/29 04:17:17;;;;;;;13.10;3.10;;;12.80;99.90;;;;;;5032667;28;20029;-60
2021/07/29 04:19:43;;;;;;;12.40;2.97;;;12.70;99.90;;;;;;5031716;28;20052;-59
2021/07/29 04:22:08;;;;;;;15.43;3.30;;;12.70;99.90;;;;;;5031745;28;20026;-60
2021/07/29 04:24:34;;;;;;;11.07;3.08;;;12.80;99.90;;;;;;5030904;28;20039;-60
2021/07/29 04:27:01;;;;;;;21.23;3.38;;;12.70;99.90;;;;;;5032083;28;20484;-60
2021/07/29 04:29:31;;;;;;;20.90;3.58;;;12.80;99.90;;;;;;5031013;28;20029;-60
2021/07/29 04:31:57;;;;;;;12.30;3.35;;;12.80;99.90;;;;;;5031138;28;20506;-62
2021/07/29 04:34:23;;;;;;;16.65;3.80;;;12.80;99.90;;;;;;5033670;28;20108;-58
2021/07/29 04:36:48;;;;;;;14.00;3.40;;;12.80;99.90;;;;;;5036404;28;20060;-60
2021/07/29 04:39:14;;;;;;;30.63;4.63;;;12.70;99.90;;;;;;5030276;28;20471;-61
2021/07/29 04:41:41;;;;;;;15.80;3.28;;;12.70;99.90;;;;;;5033056;28;20045;-60
2021/07/29 04:44:08;;;;;;;14.55;3.97;;;12.70;99.90;;;;;;5035349;28;20060;-60
2021/07/29 04:46:38;;;;;;;18.58;3.10;;;12.60;99.90;;;;;;5032215;28;20387;-60
2021/07/29 04:49:05;;;;;;;13.25;3.47;;;12.60;99.90;;;;;;5023961;28;20108;-60
2021/07/29 04:51:35;;;;;;;24.40;3.17;;;12.60;99.90;;;;;;5031959;28;20119;-61
2021/07/29 04:54:01;;;;;;;13.10;3.28;;;12.60;99.90;;;;;;5028737;28;20041;-62
2021/07/29 04:56:27;;;;;;;14.10;3.67;;;12.50;99.90;;;;;;5032915;28;20140;-59
2021/07/29 04:58:53;;;;;;;17.65;3.90;;;12.60;99.90;;;;;;5032777;28;20037;-60
2021/07/29 05:01:19;;;;;;;16.65;4.15;;;12.60;99.90;;;;;;5034081;28;20399;-60
2021/07/29 05:03:46;;;;;;;13.68;4.10;;;12.70;99.90;;;;;;5031109;28;20030;-59
2021/07/29 05:06:12;;;;;;;12.25;3.10;;;12.70;99.90;;;;;;5036780;28;20082;-58
2021/07/29 05:08:38;;;;;;;11.88;3.40;;;12.70;99.90;;;;;;5031494;28;20483;-59
2021/07/29 05:11:05;;;;;;;18.52;3.40;;;12.80;99.90;;;;;;5030438;28;20117;-60
2021/07/29 05:13:31;;;;;;;17.25;3.75;;;12.80;99.90;;;;;;5031606;28;20502;-60
2021/07/29 05:15:57;;;;;;;21.85;4.07;;;12.70;99.90;;;;;;5032011;28;20072;-59
2021/07/29 05:18:23;;;;;;;29.20;4.10;;;12.70;99.90;;;;;;5030001;28;20061;-62
2021/07/29 05:20:49;;;;;;;15.25;3.83;;;12.80;99.90;;;;;;5031642;28;20064;-60
2021/07/29 05:23:15;;;;;;;17.70;3.88;;;12.80;99.90;;;;;;5031383;28;20025;-61
2021/07/29 05:25:41;;;;;;;30.30;3.90;;;12.80;99.90;;;;;;5037011;28;21740;-61
2021/07/29 05:28:07;;;;;;;23.85;4.40;;;12.90;99.90;;;;;;5040697;28;20176;-62
2021/07/29 05:30:35;;;;;;;17.77;4.00;;;12.90;99.90;;;;;;5029779;28;20025;-60
2021/07/29 05:33:01;;;;;;;26.38;4.28;;;12.90;99.90;;;;;;5035027;28;20029;-61
2021/07/29 05:35:26;;;;;;;21.45;3.90;;;13.00;99.90;;;;;;5030504;28;20828;-63
2021/07/29 05:37:52;;;;;;;21.42;3.75;;;13.00;99.90;;;;;;5031109;28;20108;-60
2021/07/29 05:40:18;;;;;;;17.08;3.95;;;13.00;99.90;;;;;;5040571;28;20029;-60
2021/07/29 05:42:44;;;;;;;14.00;3.50;;;13.00;99.90;;;;;;5032100;28;20447;-60
2021/07/29 05:45:10;;;;;;;20.42;3.78;;;13.10;99.90;;;;;;5032793;28;20079;-60
2021/07/29 05:47:36;;;;;;;19.92;3.65;;;13.10;99.90;;;;;;5030930;28;20045;-62
2021/07/29 05:50:02;;;;;;;22.83;3.83;;;13.20;99.90;;;;;;5015921;28;20109;-61
2021/07/29 05:52:27;;;;;;;15.85;3.33;;;13.20;99.90;;;;;;5025248;28;20132;-62
2021/07/29 05:54:53;;;;;;;10.60;2.88;;;13.20;99.90;;;;;;5036471;28;20039;-59
2021/07/29 05:57:19;;;;;;;22.65;3.95;;;13.30;99.90;;;;;;5031080;28;20120;-61
2021/07/29 05:59:45;;;;;;;27.98;4.28;;;13.30;99.90;;;;;;5028240;28;20100;-63
2021/07/29 06:02:10;;;;;;;15.18;3.85;;;13.40;99.90;;;;;;5030786;28;20037;-60
2021/07/29 06:04:36;;;;;;;18.75;3.33;;;13.40;99.90;;;;;;5034103;28;20469;-60
2021/07/29 06:07:02;;;;;;;23.80;4.38;;;13.50;99.90;;;;;;5032635;28;20025;-60
2021/07/29 06:09:28;;;;;;;25.08;3.80;;;13.60;99.90;;;;;;5035385;28;20033;-60
2021/07/29 06:11:53;;;;;;;15.50;3.70;;;13.70;99.90;;;;;;5030958;28;20037;-61
2021/07/29 06:14:19;;;;;;;15.38;3.20;;;13.70;99.90;;;;;;5032664;28;20109;-61
2021/07/29 06:16:45;;;;;;;15.38;3.42;;;13.80;99.90;;;;;;5024023;28;20100;-61
2021/07/29 06:19:16;;;;;;;14.20;3.20;;;13.80;99.90;;;;;;5029136;28;20029;-61
2021/07/29 06:21:42;;;;;;;15.60;3.47;;;13.80;99.90;;;;;;5029701;28;20116;-61
2021/07/29 06:24:08;;;;;;;19.90;3.90;;;13.90;99.90;;;;;;5033630;28;20112;-63
2021/07/29 06:26:34;;;;;;;20.88;4.20;;;13.90;99.90;;;;;;5034626;28;20456;-60
2021/07/29 06:29:00;;;;;;;18.05;4.03;;;14.00;99.90;;;;;;5035232;28;20040;-62
2021/07/29 06:31:25;;;;;;;21.67;3.58;;;14.00;99.90;;;;;;5034673;28;20510;-59
2021/07/29 06:33:51;;;;;;;17.25;4.50;;;14.10;99.90;;;;;;5037294;28;20064;-61
2021/07/29 06:36:17;;;;;;;11.07;3.20;;;14.10;99.90;;;;;;5038144;28;20035;-62
2021/07/29 06:38:43;;;;;;;21.23;3.97;;;14.20;99.90;;;;;;5031239;28;20040;-61
2021/07/29 06:41:09;;;;;;;16.92;3.50;;;14.30;99.90;;;;;;5033113;28;20380;-61
2021/07/29 06:43:35;;;;;;;15.75;3.15;;;14.40;99.90;;;;;;5033872;28;20368;-60
2021/07/29 06:46:10;;;;;;;18.08;3.13;;;14.60;99.90;;;;;;5033413;28;20034;-64
2021/07/29 06:48:37;;;;;;;13.38;3.63;;;14.90;99.90;;;;;;5034721;28;20119;-61
2021/07/29 06:51:04;;;;;;;9.25;2.90;;;15.30;99.90;;;;;;5032633;28;20021;-60
2021/07/29 06:53:30;;;;;;;17.67;4.38;;;15.50;99.90;;;;;;5034017;28;20148;-61
2021/07/29 06:56:02;;;;;;;13.02;3.42;;;15.70;99.90;;;;;;5032364;28;20041;-61
2021/07/29 06:58:27;;;;;;;13.48;3.10;;;16.10;99.90;;;;;;5033554;28;20379;-61
2021/07/29 07:00:53;;;;;;;19.45;4.10;;;16.40;99.90;;;;;;5032870;28;20045;-60
2021/07/29 07:03:19;;;;;;;14.23;2.40;;;16.50;99.90;;;;;;5033151;28;20143;-62
2021/07/29 07:05:45;;;;;;;9.88;2.70;;;16.70;99.90;;;;;;5031605;28;20468;-62
2021/07/29 07:08:12;;;;;;;16.70;3.10;;;16.80;99.90;;;;;;5034313;28;20033;-63
2021/07/29 07:10:38;;;;;;;13.63;3.40;;;16.90;99.90;;;;;;5031792;28;20036;-62
2021/07/29 07:13:03;;;;;;;9.15;2.20;;;17.10;99.90;;;;;;5034059;28;20021;-60
2021/07/29 07:15:29;;;;;;;8.98;2.90;;;17.20;99.90;;;;;;5031071;28;20045;-61
2021/07/29 07:17:55;;;;;;;13.80;2.45;;;17.40;99.90;;;;;;5033783;28;20022;-60
2021/07/29 07:20:23;;;;;;;13.68;3.15;;;17.40;99.90;;;;;;5033215;28;20029;-61
2021/07/29 07:22:49;;;;;;;9.40;2.65;;;17.60;99.90;;;;;;5033325;28;20167;-60
2021/07/29 07:25:15;;;;;;;9.25;2.13;;;17.80;99.90;;;;;;5032309;28;20105;-61
2021/07/29 07:27:40;;;;;;;8.48;2.42;;;17.90;99.90;;;;;;5031682;28;20503;-60
2021/07/29 07:30:06;;;;;;;13.40;2.92;;;17.80;99.90;;;;;;5032974;28;20080;-60
2021/07/29 07:32:32;;;;;;;14.73;2.70;;;17.80;99.90;;;;;;5032838;28;20141;-60
2021/07/29 07:34:58;;;;;;;7.07;2.30;;;18.00;99.90;;;;;;5018411;28;20546;-60
2021/07/29 07:37:23;;;;;;;13.07;2.40;;;18.10;99.90;;;;;;5034030;28;20029;-59
2021/07/29 07:39:49;;;;;;;18.05;3.13;;;18.20;99.90;;;;;;5032826;28;20025;-61
2021/07/29 07:42:15;;;;;;;9.85;2.63;;;18.30;99.90;;;;;;5033500;28;20041;-61
2021/07/29 07:44:41;;;;;;;8.93;2.50;;;18.40;99.90;;;;;;5032083;28;20152;-61
2021/07/29 07:47:07;;;;;;;7.28;2.70;;;18.40;99.90;;;;;;5033166;28;20579;-59
2021/07/29 07:49:33;;;;;;;11.68;2.75;;;18.70;99.90;;;;;;5032815;28;20026;-61
2021/07/29 07:52:00;;;;;;;5.45;1.95;;;18.90;99.90;;;;;;5032416;28;20373;-60
2021/07/29 07:54:26;;;;;;;16.35;2.22;;;18.90;99.90;;;;;;5032738;28;20029;-61
2021/07/29 07:56:51;;;;;;;11.52;2.22;;;18.80;99.90;;;;;;5023733;28;20033;-61
2021/07/29 07:59:17;;;;;;;11.00;2.35;;;18.90;99.90;;;;;;5032794;28;20044;-62
2021/07/29 08:01:44;;;;;;;16.08;2.50;;;19.10;99.90;;;;;;5032980;28;20025;-61
2021/07/29 08:04:10;;;;;;;14.10;1.92;;;19.30;99.90;;;;;;5033405;28;20425;-60
2021/07/29 08:06:36;;;;;;;6.93;1.90;;;19.40;99.90;;;;;;5032346;28;20119;-60
2021/07/29 08:09:03;;;;;;;8.88;2.00;;;19.40;99.90;;;;;;5031204;28;20037;-62
2021/07/29 08:11:30;;;;;;;7.85;1.92;;;19.30;99.90;;;;;;5032215;28;20183;-61
2021/07/29 08:13:56;;;;;;;11.68;2.70;;;19.20;99.90;;;;;;5033171;28;20033;-59
2021/07/29 08:16:21;;;;;;;4.85;1.60;;;19.10;99.90;;;;;;5032025;28;20041;-61
2021/07/29 08:18:47;;;;;;;12.45;2.20;;;19.30;99.90;;;;;;5032135;28;20025;-59
2021/07/29 08:21:13;;;;;;;6.80;1.98;;;19.50;99.90;;;;;;5026909;28;20026;-60
2021/07/29 08:23:39;;;;;;;10.05;2.15;;;19.80;99.90;;;;;;5029916;28;20100;-60
2021/07/29 08:26:07;;;;;;;6.28;2.05;;;19.90;99.90;;;;;;5032064;28;20025;-59
2021/07/29 08:28:34;;;;;;;9.10;2.33;;;20.20;99.90;;;;;;5030561;28;20054;-60
2021/07/29 08:31:00;;;;;;;7.35;2.15;;;20.30;99.90;;;;;;5032128;28;20113;-62
2021/07/29 08:33:26;;;;;;;4.85;1.95;;;20.30;99.90;;;;;;5032766;28;20030;-60
2021/07/29 08:35:52;;;;;;;7.55;1.92;;;20.20;99.90;;;;;;5031651;28;20036;-59
2021/07/29 08:38:18;;;;;;;6.18;2.00;;;20.30;99.90;;;;;;5029076;28;20026;-61
2021/07/29 08:40:43;;;;;;;7.97;1.88;;;20.40;99.90;;;;;;5028960;28;20029;-61
2021/07/29 08:43:10;;;;;;;7.22;1.88;;;20.50;99.90;;;;;;5032056;28;20482;-60
2021/07/29 08:45:43;;;;;;;6.20;1.67;;;20.40;99.90;;;;;;5030745;28;20397;-60
2021/07/29 08:48:10;;;;;;;7.10;1.75;;;20.70;99.90;;;;;;5029879;28;20523;-60
2021/07/29 08:50:37;;;;;;;5.00;1.80;;;20.50;99.90;;;;;;5022473;28;20395;-60
2021/07/29 08:53:03;;;;;;;8.02;2.25;;;20.80;99.90;;;;;;5028912;28;20025;-63
2021/07/29 08:55:30;;;;;;;8.77;2.40;;;20.80;99.90;;;;;;5021545;28;20045;-60
2021/07/29 08:57:56;;;;;;;5.45;1.50;;;20.80;99.90;;;;;;5031512;28;20083;-60
2021/07/29 09:00:22;;;;;;;9.25;2.13;;;20.80;99.90;;;;;;5031455;28;20135;-59
2021/07/29 09:02:48;;;;;;;6.35;2.05;;;20.90;99.90;;;;;;5032311;28;20033;-60
2021/07/29 09:05:21;;;;;;;8.40;2.20;;;21.10;99.90;;;;;;5030593;28;20112;-59
2021/07/29 09:08:07;;;;;;;3.63;1.60;;;21.20;99.90;;;;;;5032214;28;20475;-60
2021/07/29 09:10:38;;;;;;;26.33;3.45;;;21.50;99.90;;;;;;5022982;28;20033;-61
2021/07/29 09:13:15;;;;;;;9.20;2.70;;;21.60;99.90;;;;;;5031649;28;20434;-59
2021/07/29 09:15:43;;;;;;;6.57;1.90;;;21.70;99.90;;;;;;5031336;28;20036;-60
2021/07/29 09:18:09;;;;;;;8.63;1.90;;;21.50;99.90;;;;;;5031557;28;20468;-62
2021/07/29 09:20:36;;;;;;;6.55;2.20;;;21.80;99.90;;;;;;5029927;28;20092;-60
2021/07/29 09:23:12;;;;;;;7.60;2.25;;;21.90;99.90;;;;;;5030358;28;20088;-61
2021/07/29 09:25:38;;;;;;;6.03;1.85;;;21.90;99.90;;;;;;5020773;28;20160;-60
2021/07/29 09:28:05;;;;;;;6.13;1.40;;;22.00;99.90;;;;;;5023114;28;20496;-59
2021/07/29 09:30:31;;;;;;;5.45;1.60;;;21.90;99.90;;;;;;5029618;28;20069;-60
2021/07/29 09:32:59;;;;;;;9.02;2.00;;;21.70;99.90;;;;;;5029160;28;20065;-60
2021/07/29 09:35:29;;;;;;;5.10;2.08;;;21.90;99.90;;;;;;5026027;28;20416;-60
2021/07/29 09:37:55;;;;;;;4.25;1.33;;;22.20;99.90;;;;;;5031556;28;20021;-61
2021/07/29 09:40:21;;;;;;;4.40;1.70;;;22.00;99.90;;;;;;5030558;28;20025;-60
2021/07/29 09:43:13;;;;;;;7.28;1.60;;;22.00;99.90;;;;;;5030650;28;20079;-59
2021/07/29 09:45:40;;;;;;;4.70;1.60;;;22.30;99.90;;;;;;5021687;28;20514;-61
2021/07/29 09:48:08;;;;;;;3.97;1.40;;;22.10;99.90;;;;;;5031381;28;20033;-61
2021/07/29 09:50:35;;;;;;;3.35;1.63;;;22.10;99.90;;;;;;5030139;28;20029;-61
2021/07/29 09:53:02;;;;;;;3.38;1.33;;;22.30;99.90;;;;;;5030361;28;20438;-62
2021/07/29 09:55:28;;;;;;;6.60;1.77;;;22.10;99.90;;;;;;5019562;28;20426;-60
2021/07/29 09:57:54;;;;;;;7.43;2.20;;;22.00;99.90;;;;;;5030831;28;20018;-61
2021/07/29 10:00:20;;;;;;;6.68;1.20;;;22.00;99.90;;;;;;5030070;28;20507;-62
2021/07/29 10:02:47;;;;;;;4.28;1.58;;;22.10;99.90;;;;;;5030231;28;20083;-61
2021/07/29 10:05:15;;;;;;;3.20;1.15;;;22.00;99.90;;;;;;5029960;28;20030;-61
2021/07/29 10:07:45;;;;;;;5.43;1.30;;;22.10;99.90;;;;;;5020199;28;20034;-59
2021/07/29 10:10:12;;;;;;;6.57;1.52;;;21.80;99.90;;;;;;5028099;28;20043;-61
2021/07/29 10:12:38;;;;;;;6.68;1.52;;;21.60;99.90;;;;;;5023509;28;20486;-60
2021/07/29 10:15:05;;;;;;;3.42;1.38;;;21.90;99.90;;;;;;5027308;28;20053;-62
2021/07/29 10:17:36;;;;;;;3.53;1.30;;;22.10;99.90;;;;;;5030118;28;20485;-61
2021/07/29 10:20:19;;;;;;;3.65;1.65;;;22.30;99.90;;;;;;5030070;28;20089;-60
2021/07/29 10:22:47;;;;;;;5.85;1.58;;;22.60;99.90;;;;;;5031063;28;20052;-60
2021/07/29 10:25:14;;;;;;;5.72;1.25;;;22.20;99.90;;;;;;5029794;28;20468;-60
2021/07/29 10:27:41;;;;;;;7.32;1.95;;;22.30;99.90;;;;;;5024127;28;20115;-61
2021/07/29 10:30:19;;;;;;;8.40;1.80;;;22.20;99.90;;;;;;5023717;28;20064;-60
2021/07/29 10:32:52;;;;;;;6.10;1.70;;;22.20;99.90;;;;;;5029788;28;20026;-59
2021/07/29 10:35:30;;;;;;;10.88;1.70;;;21.80;99.90;;;;;;5030027;28;20069;-61
2021/07/29 10:37:56;;;;;;;4.68;1.58;;;22.00;99.90;;;;;;5024082;28;20442;-61
2021/07/29 10:40:33;;;;;;;4.15;1.65;;;22.00;99.90;;;;;;5024454;28;20060;-60
2021/07/29 10:43:25;;;;;;;7.10;1.40;;;22.30;99.90;;;;;;5030790;28;20030;-61
2021/07/29 10:45:55;;;;;;;8.55;1.40;;;22.40;99.90;;;;;;5008782;28;20061;-59
2021/07/29 10:48:43;;;;;;;9.23;1.35;;;22.60;99.90;;;;;;5029987;28;20119;-60
2021/07/29 10:51:15;;;;;;;8.45;1.58;;;22.90;99.90;;;;;;5029757;28;20030;-61
2021/07/29 10:53:51;;;;;;;3.03;1.40;;;22.80;99.90;;;;;;5030840;28;20040;-59
2021/07/29 10:56:20;;;;;;;6.30;1.50;;;22.80;99.90;;;;;;5028499;28;20044;-60
2021/07/29 10:58:47;;;;;;;3.63;1.40;;;22.80;99.90;;;;;;5028898;28;20072;-59
2021/07/29 11:01:15;;;;;;;1.90;1.20;;;22.80;99.90;;;;;;5021325;28;20083;-61
2021/07/29 11:03:50;;;;;;;3.28;1.02;;;22.80;99.90;;;;;;5030154;28;20478;-58
2021/07/29 11:06:41;;;;;;;4.95;1.35;;;22.60;99.90;;;;;;5029831;28;20033;-60
2021/07/29 11:09:18;;;;;;;2.63;1.20;;;22.40;99.90;;;;;;5032139;28;20044;-61
2021/07/29 11:11:49;;;;;;;6.70;1.60;;;22.50;99.90;;;;;;5031418;28;20026;-59
2021/07/29 11:14:23;;;;;;;6.30;1.63;;;22.40;99.90;;;;;;5034168;28;20029;-60
2021/07/29 11:16:50;;;;;;;6.68;1.40;;;22.20;99.90;;;;;;5032907;28;20040;-60
2021/07/29 11:19:16;;;;;;;3.20;1.15;;;22.10;99.90;;;;;;5034201;28;20387;-61
2021/07/29 11:21:42;;;;;;;1.88;1.33;;;22.40;99.90;;;;;;5033028;28;20472;-59
2021/07/29 11:24:25;;;;;;;4.25;1.25;;;22.40;99.90;;;;;;5033825;28;20083;-60
2021/07/29 11:26:50;;;;;;;4.22;1.15;;;22.30;99.90;;;;;;5028956;28;20045;-62
2021/07/29 11:29:16;;;;;;;2.28;1.20;;;22.40;99.90;;;;;;5034055;28;20104;-62
2021/07/29 11:31:43;;;;;;;6.10;1.15;;;22.20;99.90;;;;;;5032180;28;20476;-60
2021/07/29 11:34:09;;;;;;;3.97;1.13;;;22.10;99.90;;;;;;5032912;28;20021;-59
2021/07/29 11:36:36;;;;;;;4.13;1.52;;;22.30;99.90;;;;;;5032327;28;20032;-60
2021/07/29 11:39:06;;;;;;;2.80;1.23;;;22.10;99.90;;;;;;5033586;28;20429;-61
2021/07/29 11:41:51;;;;;;;3.70;1.77;;;22.30;99.90;;;;;;5032770;28;20041;-60
2021/07/29 11:44:17;;;;;;;4.82;1.25;;;22.30;99.90;;;;;;5033604;28;20030;-60
2021/07/29 11:47:00;;;;;;;2.70;1.15;;;22.30;99.90;;;;;;5029708;28;20754;-59
2021/07/29 11:49:26;;;;;;;2.55;1.10;;;22.40;99.90;;;;;;5028557;28;20104;-61
2021/07/29 11:52:19;;;;;;;3.72;1.10;;;22.60;99.90;;;;;;5032720;28;20140;-60
2021/07/29 11:54:45;;;;;;;6.05;1.20;;;22.30;99.90;;;;;;5032298;28;20037;-60
2021/07/29 11:57:12;;;;;;;2.33;1.40;;;22.40;99.90;;;;;;5032099;28;20075;-60
2021/07/29 11:59:46;;;;;;;4.90;1.35;;;22.40;99.90;;;;;;5033352;28;20025;-61
2021/07/29 12:02:19;;;;;;;5.65;1.30;;;22.30;99.90;;;;;;5032387;28;20421;-59
2021/07/29 12:04:45;;;;;;;3.08;1.10;;;22.40;99.90;;;;;;5033358;28;20112;-59
2021/07/29 12:07:14;;;;;;;3.15;1.40;;;22.30;99.90;;;;;;5032748;28;20029;-61
2021/07/29 12:09:45;;;;;;;6.03;1.50;;;22.10;99.90;;;;;;5033104;28;20025;-60
2021/07/29 12:12:11;;;;;;;8.80;1.90;;;22.10;99.90;;;;;;5028472;28;20057;-62
2021/07/29 12:14:42;;;;;;;2.92;1.40;;;22.60;99.90;;;;;;5022319;28;20129;-63
2021/07/29 12:17:21;;;;;;;6.97;1.20;;;22.90;99.90;;;;;;5030929;28;20048;-59
2021/07/29 12:20:03;;;;;;;11.38;3.67;;;22.80;99.90;;;;;;5031912;28;20040;-62
2021/07/29 12:22:30;;;;;;;5.60;1.48;;;22.80;99.90;;;;;;5031997;28;20424;-61
2021/07/29 12:24:58;;;;;;;7.43;2.00;;;22.50;99.90;;;;;;5032546;28;20037;-59
2021/07/29 12:27:24;;;;;;;6.90;1.50;;;22.40;99.90;;;;;;5026990;28;20508;-59
2021/07/29 12:29:50;;;;;;;8.98;1.58;;;22.50;99.90;;;;;;5026708;28;20075;-60
2021/07/29 12:32:29;;;;;;;6.80;1.60;;;22.50;99.90;;;;;;5031249;28;20112;-61
2021/07/29 12:34:55;;;;;;;3.47;1.30;;;22.40;99.90;;;;;;5032522;28;20040;-61
2021/07/29 12:37:34;;;;;;;6.78;1.52;;;22.80;99.90;;;;;;5031377;28;20040;-60
2021/07/29 12:40:01;;;;;;;10.20;1.80;;;22.90;99.90;;;;;;5032752;28;20040;-59
2021/07/29 12:42:29;;;;;;;2.47;1.23;;;22.90;99.90;;;;;;5029625;28;20040;-61
2021/07/29 12:45:00;;;;;;;5.47;1.33;;;22.80;99.90;;;;;;5032333;28;20072;-60
2021/07/29 12:47:26;;;;;;;7.63;1.33;;;22.90;99.90;;;;;;5028814;28;20037;-60